Time;durP1;ratioP1;P1;durP2;ratioP2;P2;SDS_P1;SDS_P2;PMS_P1;PMS_P2;Temp;Humidity;BMP_temperature;BMP_pressure;BME280_temperature;BME280_humidity;BME280_pressure;Samples;Min_cycle;Max_cycle;Signal;HPM_P1;HPM_P2
2021/11/28 00:00:18;;;;;;;0.20;0.20;;;2.90;99.90;;;;;;5048896;28;20127;-83
2021/11/28 00:02:45;;;;;;;0.20;0.20;;;2.90;99.90;;;;;;5032737;28;20041;-83
2021/11/28 00:05:14;;;;;;;0.10;0.10;;;3.20;99.90;;;;;;4999963;28;20049;-83
2021/11/28 00:15:15;;;;;;;0.10;0.10;;;2.90;99.90;;;;;;5048146;28;20042;-84
2021/11/28 00:17:43;;;;;;;0.10;0.10;;;2.90;99.90;;;;;;5048068;28;20104;-83
2021/11/28 00:20:13;;;;;;;0.20;0.20;;;2.90;99.90;;;;;;5048053;28;20096;-83
2021/11/28 00:22:41;;;;;;;0.10;0.10;;;3.20;99.90;;;;;;5048032;28;20052;-84
2021/11/28 00:25:12;;;;;;;0.10;0.10;;;2.90;99.90;;;;;;4999331;28;20046;-83
2021/11/28 00:27:39;;;;;;;0.30;0.30;;;2.90;99.90;;;;;;5047921;28;20042;-83
2021/11/28 00:30:09;;;;;;;0.20;0.20;;;2.90;99.90;;;;;;4999010;28;20077;-83
2021/11/28 00:32:36;;;;;;;0.17;0.17;;;2.90;99.90;;;;;;5015945;28;20073;-84
2021/11/28 00:35:03;;;;;;;0.10;0.10;;;3.30;99.90;;;;;;4999210;28;20084;-83
2021/11/28 00:37:30;;;;;;;0.10;0.10;;;2.80;99.90;;;;;;5031628;28;20046;-83
2021/11/28 00:39:57;;;;;;;0.20;0.20;;;2.80;99.90;;;;;;5031231;28;20402;-84
2021/11/28 00:42:23;;;;;;;0.10;0.10;;;3.50;99.90;;;;;;5031371;28;20069;-83
2021/11/28 00:44:50;;;;;;;0.10;0.10;;;3.20;99.90;;;;;;5031440;28;20049;-83
2021/11/28 00:47:19;;;;;;;0.10;0.10;;;3.00;99.90;;;;;;5031253;28;20042;-83
2021/11/28 00:49:52;;;;;;;0.10;0.10;;;3.40;99.90;;;;;;5031742;28;20042;-82
2021/11/28 00:52:18;;;;;;;0.20;0.20;;;3.10;99.90;;;;;;5031634;28;20129;-83
2021/11/28 00:54:47;;;;;;;0.20;0.20;;;3.30;99.90;;;;;;5047630;28;20120;-83
2021/11/28 00:57:13;;;;;;;0.20;0.20;;;2.90;99.90;;;;;;5031596;28;20045;-84
2021/11/28 00:59:40;;;;;;;0.20;0.20;;;2.90;99.90;;;;;;4998857;28;20207;-84
2021/11/28 01:02:07;;;;;;;0.10;0.10;;;2.90;99.90;;;;;;5014831;28;20844;-83
2021/11/28 01:04:34;;;;;;;0.15;0.15;;;3.60;99.90;;;;;;4998980;28;20050;-84
2021/11/28 01:07:01;;;;;;;0.10;0.10;;;4.00;99.90;;;;;;5030823;28;20046;-84
2021/11/28 01:09:28;;;;;;;0.20;0.20;;;2.90;99.90;;;;;;5047237;28;20042;-83
2021/11/28 01:11:54;;;;;;;0.10;0.10;;;3.70;99.90;;;;;;5016524;28;20104;-83
2021/11/28 01:14:21;;;;;;;0.10;0.10;;;3.00;99.90;;;;;;5017775;28;20045;-83
2021/11/28 01:16:48;;;;;;;0.10;0.10;;;3.40;99.90;;;;;;5034207;28;20042;-83
2021/11/28 01:19:16;;;;;;;0.10;0.10;;;3.00;99.90;;;;;;5001627;28;20096;-83
2021/11/28 01:21:51;;;;;;;0.10;0.10;;;3.50;99.90;;;;;;5033724;28;20391;-83
2021/11/28 01:24:18;;;;;;;0.20;0.20;;;3.60;99.90;;;;;;5033816;28;20156;-82
2021/11/28 01:26:45;;;;;;;0.10;0.10;;;3.20;99.90;;;;;;5017710;28;20575;-83
2021/11/28 01:29:12;;;;;;;0.20;0.20;;;3.00;99.90;;;;;;5001218;28;20037;-83
2021/11/28 01:31:39;;;;;;;0.20;0.20;;;3.00;99.90;;;;;;5034076;28;20056;-83
2021/11/28 01:34:06;;;;;;;0.20;0.20;;;3.80;99.90;;;;;;5017639;28;20037;-82
2021/11/28 01:36:33;;;;;;;0.20;0.20;;;3.00;99.90;;;;;;5033700;28;20114;-83
2021/11/28 01:39:01;;;;;;;0.10;0.10;;;3.30;99.90;;;;;;5033328;28;20113;-82
2021/11/28 01:41:28;;;;;;;0.10;0.10;;;3.90;99.90;;;;;;5050407;28;20041;-83
2021/11/28 01:43:57;;;;;;;0.10;0.10;;;3.00;99.90;;;;;;5017501;28;20044;-82
2021/11/28 01:46:25;;;;;;;0.10;0.10;;;3.00;99.90;;;;;;5018242;28;20053;-83
2021/11/28 01:48:53;;;;;;;0.20;0.20;;;2.90;99.90;;;;;;5017022;28;20797;-83
2021/11/28 01:51:20;;;;;;;0.10;0.10;;;2.90;99.90;;;;;;5001520;28;20050;-83
2021/11/28 01:53:48;;;;;;;0.20;0.20;;;2.90;99.90;;;;;;5033774;28;20049;-83
2021/11/28 01:56:16;;;;;;;0.20;0.20;;;2.90;99.90;;;;;;5017740;28;20038;-83
2021/11/28 01:58:43;;;;;;;0.15;0.15;;;2.90;99.90;;;;;;5033712;28;20045;-83
2021/11/28 02:01:14;;;;;;;0.10;0.10;;;3.00;99.90;;;;;;5016961;28;20033;-82
2021/11/28 02:03:43;;;;;;;0.10;0.10;;;3.10;99.90;;;;;;5050112;28;20099;-83
2021/11/28 02:06:14;;;;;;;0.10;0.10;;;3.30;99.90;;;;;;5032985;28;20409;-83
2021/11/28 02:08:41;;;;;;;0.20;0.20;;;3.00;99.90;;;;;;5033202;28;20040;-84
2021/11/28 02:11:09;;;;;;;0.10;0.10;;;2.90;99.90;;;;;;5017323;28;20044;-83
2021/11/28 02:13:36;;;;;;;0.10;0.10;;;3.00;99.90;;;;;;5032889;28;20506;-83
2021/11/28 02:16:03;;;;;;;0.10;0.10;;;2.90;99.90;;;;;;5016733;28;20056;-83
2021/11/28 02:18:30;;;;;;;0.10;0.10;;;2.90;99.90;;;;;;5001237;28;20136;-83
2021/11/28 02:20:59;;;;;;;0.10;0.10;;;3.10;99.90;;;;;;5016871;28;20493;-83
2021/11/28 02:23:27;;;;;;;0.10;0.10;;;2.90;99.90;;;;;;5033269;28;20049;-83
2021/11/28 02:26:01;;;;;;;0.20;0.20;;;3.00;99.90;;;;;;5017374;28;20029;-83
2021/11/28 02:28:28;;;;;;;0.10;0.10;;;3.50;99.90;;;;;;5033004;28;20042;-83
2021/11/28 02:30:55;;;;;;;0.28;0.28;;;2.90;99.90;;;;;;5033319;28;20034;-83
2021/11/28 02:33:22;;;;;;;0.10;0.10;;;3.20;99.90;;;;;;5049604;28;20037;-83
2021/11/28 02:35:49;;;;;;;1.55;0.40;;;3.80;99.90;;;;;;5017060;28;20510;-83
2021/11/28 02:38:16;;;;;;;0.10;0.10;;;3.00;99.90;;;;;;5000892;28;20041;-83
2021/11/28 02:40:45;;;;;;;0.20;0.20;;;3.10;99.90;;;;;;5016802;28;20452;-83
2021/11/28 02:43:12;;;;;;;0.20;0.20;;;3.20;99.90;;;;;;5032630;28;20041;-83
2021/11/28 02:45:39;;;;;;;0.10;0.10;;;2.90;99.90;;;;;;5033128;28;20494;-83
2021/11/28 02:48:10;;;;;;;0.10;0.10;;;2.90;99.90;;;;;;5049236;28;20502;-84
2021/11/28 02:50:37;;;;;;;0.10;0.10;;;2.90;99.90;;;;;;5033385;28;20041;-84
2021/11/28 02:53:07;;;;;;;0.15;0.15;;;3.20;99.90;;;;;;5033443;28;20037;-83
2021/11/28 02:55:48;;;;;;;0.10;0.10;;;2.90;99.90;;;;;;5033095;28;20073;-83
2021/11/28 02:58:18;;;;;;;0.10;0.10;;;2.90;99.90;;;;;;5032974;28;20128;-83
2021/11/28 03:00:50;;;;;;;0.20;0.20;;;3.00;99.90;;;;;;5019757;28;20041;-83
2021/11/28 03:03:16;;;;;;;0.10;0.10;;;2.90;99.90;;;;;;5036345;28;20413;-83
2021/11/28 03:05:43;;;;;;;0.10;0.10;;;3.40;99.90;;;;;;5020624;28;20046;-84
2021/11/28 03:08:14;;;;;;;0.15;0.15;;;2.90;99.90;;;;;;5052522;28;20076;-82
2021/11/28 03:10:44;;;;;;;0.10;0.10;;;2.90;99.90;;;;;;5053185;28;20417;-84
2021/11/28 03:13:27;;;;;;;0.10;0.10;;;3.30;99.90;;;;;;5036045;28;20041;-83
2021/11/28 03:15:58;;;;;;;0.10;0.10;;;2.90;99.90;;;;;;5052581;28;20046;-84
2021/11/28 03:18:28;;;;;;;0.17;0.17;;;2.90;99.90;;;;;;5036363;28;20037;-85
2021/11/28 03:20:58;;;;;;;0.17;0.17;;;3.20;99.90;;;;;;5020284;28;20124;-84
2021/11/28 03:23:29;;;;;;;0.10;0.10;;;3.30;99.90;;;;;;5035975;28;20041;-84
2021/11/28 03:26:24;;;;;;;0.17;0.17;;;2.90;99.90;;;;;;5052675;28;20486;-84
2021/11/28 03:28:57;;;;;;;0.20;0.20;;;3.00;99.90;;;;;;5030980;28;20049;-84
2021/11/28 03:31:27;;;;;;;0.10;0.10;;;3.00;99.90;;;;;;5035939;28;20124;-84
2021/11/28 03:33:54;;;;;;;0.20;0.20;;;3.10;99.90;;;;;;5036162;28;20458;-84
2021/11/28 03:36:24;;;;;;;0.10;0.10;;;3.10;99.90;;;;;;5019681;28;20034;-84
2021/11/28 03:38:52;;;;;;;0.20;0.20;;;3.20;99.90;;;;;;5036001;28;20398;-82
2021/11/28 03:41:21;;;;;;;0.13;0.13;;;3.10;99.90;;;;;;5035848;28;20048;-83
2021/11/28 03:43:50;;;;;;;0.10;0.10;;;3.70;99.90;;;;;;5035882;28;20037;-83
2021/11/28 03:46:17;;;;;;;0.20;0.20;;;3.00;99.90;;;;;;5019322;28;20124;-83
2021/11/28 03:48:43;;;;;;;0.20;0.20;;;3.00;99.90;;;;;;5019970;28;20144;-82
2021/11/28 03:51:11;;;;;;;0.20;0.20;;;2.90;99.90;;;;;;5003773;28;20494;-82
2021/11/28 03:53:37;;;;;;;0.20;0.20;;;2.90;99.90;;;;;;5019358;28;20048;-82
2021/11/28 03:56:07;;;;;;;0.20;0.20;;;3.50;99.90;;;;;;5035946;28;20046;-83
2021/11/28 03:58:36;;;;;;;0.10;0.10;;;2.80;99.90;;;;;;5051672;28;20971;-83
2021/11/28 04:01:06;;;;;;;0.20;0.20;;;2.80;99.90;;;;;;5019540;28;20037;-82
2021/11/28 04:03:34;;;;;;;0.20;0.20;;;2.90;99.90;;;;;;5035324;28;20033;-82
2021/11/28 04:06:01;;;;;;;0.10;0.10;;;3.20;99.90;;;;;;5035256;28;20099;-82
2021/11/28 04:08:28;;;;;;;0.10;0.10;;;2.60;99.90;;;;;;5035176;28;20450;-82
2021/11/28 04:10:55;;;;;;;0.10;0.10;;;2.60;99.90;;;;;;5035209;28;20041;-83
2021/11/28 04:13:22;;;;;;;0.10;0.10;;;3.10;99.90;;;;;;5034501;28;20064;-83
2021/11/28 04:15:49;;;;;;;0.20;0.20;;;2.50;99.90;;;;;;5035059;28;20081;-83
2021/11/28 04:18:16;;;;;;;0.20;0.20;;;2.40;99.90;;;;;;5035301;28;20044;-83
2021/11/28 04:20:43;;;;;;;0.13;0.13;;;2.90;99.90;;;;;;5002614;28;20069;-83
2021/11/28 04:23:10;;;;;;;0.10;0.10;;;3.20;99.90;;;;;;5018999;28;20029;-83
2021/11/28 04:25:38;;;;;;;0.10;0.10;;;3.10;99.90;;;;;;5018919;28;20401;-82
2021/11/28 04:28:06;;;;;;;0.10;0.10;;;3.00;99.90;;;;;;5051506;28;20079;-82
2021/11/28 04:30:34;;;;;;;0.20;0.20;;;2.50;99.90;;;;;;5034754;28;20077;-82
2021/11/28 04:33:01;;;;;;;0.10;0.10;;;2.40;99.90;;;;;;5035176;28;20128;-83
2021/11/28 04:35:29;;;;;;;0.15;0.15;;;2.30;99.90;;;;;;5002293;28;20080;-82
2021/11/28 04:37:55;;;;;;;0.15;0.15;;;2.00;99.90;;;;;;5034894;28;20087;-82
2021/11/28 04:40:23;;;;;;;0.10;0.10;;;2.00;99.90;;;;;;5034704;28;20033;-82
2021/11/28 04:42:50;;;;;;;0.15;0.15;;;1.90;99.90;;;;;;5035043;28;20124;-82
2021/11/28 04:45:17;;;;;;;0.20;0.20;;;2.90;99.90;;;;;;5034673;28;20481;-82
2021/11/28 04:47:43;;;;;;;0.10;0.10;;;1.80;99.90;;;;;;5018063;28;20072;-82
2021/11/28 04:50:13;;;;;;;0.20;0.20;;;1.80;99.90;;;;;;5018716;28;20061;-82
2021/11/28 04:52:40;;;;;;;0.20;0.20;;;2.70;99.90;;;;;;5034270;28;20092;-82
2021/11/28 04:55:09;;;;;;;0.10;0.10;;;1.70;99.90;;;;;;5034515;28;20037;-83
2021/11/28 04:57:36;;;;;;;0.20;0.20;;;1.90;99.90;;;;;;5034509;28;20037;-83
2021/11/28 05:00:11;;;;;;;0.20;0.20;;;1.60;99.90;;;;;;5018220;28;20033;-82
2021/11/28 05:02:39;;;;;;;0.10;0.10;;;1.60;99.90;;;;;;5034252;28;20077;-82
2021/11/28 05:05:06;;;;;;;0.20;0.20;;;1.60;99.90;;;;;;5002530;28;20037;-83
2021/11/28 05:07:33;;;;;;;0.20;0.20;;;1.60;99.90;;;;;;5017717;28;20052;-83
2021/11/28 05:10:00;;;;;;;0.20;0.20;;;2.40;99.90;;;;;;5033796;28;20049;-83
2021/11/28 05:12:27;;;;;;;0.20;0.20;;;1.60;99.90;;;;;;5017094;28;20100;-83
2021/11/28 05:14:54;;;;;;;0.30;0.30;;;2.30;99.90;;;;;;5017845;28;20049;-83
2021/11/28 05:17:20;;;;;;;0.30;0.30;;;1.60;99.90;;;;;;5034477;28;20045;-82
2021/11/28 05:19:47;;;;;;;0.20;0.20;;;1.80;99.90;;;;;;5017938;28;20044;-83
2021/11/28 05:22:15;;;;;;;0.20;0.20;;;2.30;99.90;;;;;;5018445;28;20038;-83
2021/11/28 05:24:43;;;;;;;0.10;0.10;;;1.50;99.90;;;;;;5032820;28;20037;-83
2021/11/28 05:27:09;;;;;;;0.20;0.20;;;1.60;99.90;;;;;;5017786;28;20402;-82
2021/11/28 05:29:36;;;;;;;0.10;0.10;;;1.50;99.90;;;;;;5001506;28;20052;-83
2021/11/28 05:32:04;;;;;;;0.20;0.20;;;1.80;99.90;;;;;;5050713;28;20041;-83
2021/11/28 05:34:30;;;;;;;0.20;0.20;;;1.50;99.90;;;;;;5033635;28;20049;-82
2021/11/28 05:36:57;;;;;;;0.20;0.20;;;1.50;99.90;;;;;;5018327;28;20056;-82
2021/11/28 05:39:24;;;;;;;0.20;0.20;;;1.40;99.90;;;;;;5018525;28;20045;-82
2021/11/28 05:41:50;;;;;;;0.20;0.20;;;1.40;99.90;;;;;;5017353;28;20478;-82
2021/11/28 05:44:17;;;;;;;0.20;0.20;;;1.30;99.90;;;;;;5001928;28;20529;-82
2021/11/28 05:46:44;;;;;;;0.20;0.20;;;1.30;99.90;;;;;;5050098;28;20041;-83
2021/11/28 05:49:11;;;;;;;0.20;0.20;;;2.00;99.90;;;;;;5001364;28;20413;-83
2021/11/28 05:51:38;;;;;;;0.15;0.15;;;1.20;99.90;;;;;;5001335;28;20095;-83
2021/11/28 05:54:04;;;;;;;0.65;0.45;;;1.50;99.90;;;;;;5017415;28;20627;-83
2021/11/28 05:56:31;;;;;;;0.20;0.20;;;1.10;99.90;;;;;;5001003;28;20098;-82
2021/11/28 05:58:58;;;;;;;0.20;0.20;;;1.50;99.90;;;;;;5049895;28;20124;-83
2021/11/28 06:01:25;;;;;;;0.20;0.20;;;1.00;99.90;;;;;;5017583;28;20076;-83
2021/11/28 06:03:52;;;;;;;0.30;0.30;;;1.20;99.90;;;;;;5032921;28;20061;-83
2021/11/28 06:06:19;;;;;;;0.20;0.20;;;1.40;99.90;;;;;;5016963;28;20105;-82
2021/11/28 06:08:46;;;;;;;0.30;0.30;;;1.00;99.90;;;;;;5000918;28;20416;-83
2021/11/28 06:11:12;;;;;;;0.20;0.20;;;1.30;99.90;;;;;;5033292;28;20063;-82
2021/11/28 06:13:39;;;;;;;0.20;0.20;;;0.90;99.90;;;;;;5016768;28;20057;-83
2021/11/28 06:16:06;;;;;;;0.20;0.20;;;0.90;99.90;;;;;;5016978;28;20045;-82
2021/11/28 06:18:33;;;;;;;0.20;0.20;;;0.90;99.90;;;;;;5019758;28;20471;-82
2021/11/28 06:21:00;;;;;;;0.20;0.20;;;0.90;99.90;;;;;;5051242;28;20044;-84
2021/11/28 06:23:26;;;;;;;0.20;0.20;;;0.90;99.90;;;;;;5036860;28;20079;-84
2021/11/28 06:25:53;;;;;;;0.20;0.20;;;1.10;99.90;;;;;;5054479;28;20041;-83
2021/11/28 06:28:20;;;;;;;0.20;0.20;;;1.50;99.90;;;;;;5036666;28;20493;-83
2021/11/28 06:30:46;;;;;;;0.20;0.20;;;1.20;99.90;;;;;;5053047;28;20044;-83
2021/11/28 06:33:14;;;;;;;0.10;0.10;;;1.30;99.90;;;;;;5036398;28;20779;-83
2021/11/28 06:35:40;;;;;;;0.25;0.25;;;1.40;99.90;;;;;;5055134;28;20056;-83
2021/11/28 06:38:07;;;;;;;0.20;0.20;;;1.70;99.90;;;;;;5040881;28;20037;-83
2021/11/28 06:40:36;;;;;;;0.20;0.20;;;1.90;99.90;;;;;;5040818;28;20048;-83
2021/11/28 06:43:03;;;;;;;0.20;0.20;;;2.00;99.90;;;;;;5041393;28;20040;-82
2021/11/28 06:45:30;;;;;;;0.20;0.20;;;1.20;99.90;;;;;;5057041;28;20411;-84
2021/11/28 06:47:58;;;;;;;0.20;0.20;;;1.10;99.90;;;;;;5073050;28;20097;-83
2021/11/28 06:50:25;;;;;;;0.38;0.38;;;1.10;99.90;;;;;;5041756;28;20131;-83
2021/11/28 06:52:52;;;;;;;0.20;0.20;;;1.70;99.90;;;;;;5056833;28;20037;-82
2021/11/28 06:55:18;;;;;;;0.30;0.30;;;1.10;99.90;;;;;;5040182;28;20516;-82
2021/11/28 06:57:45;;;;;;;0.20;0.20;;;1.10;99.90;;;;;;5056392;28;20037;-82
2021/11/28 07:00:12;;;;;;;0.20;0.20;;;1.10;99.90;;;;;;5039977;28;20049;-82
2021/11/28 07:02:39;;;;;;;0.20;0.20;;;1.00;99.90;;;;;;5056567;28;20068;-82
2021/11/28 07:05:06;;;;;;;0.20;0.20;;;1.00;99.90;;;;;;5040967;28;20150;-82
2021/11/28 07:07:33;;;;;;;0.20;0.20;;;1.00;99.90;;;;;;5043633;28;20549;-84
2021/11/28 07:10:00;;;;;;;0.30;0.30;;;1.60;99.90;;;;;;5055609;28;20053;-83
2021/11/28 07:12:27;;;;;;;0.20;0.20;;;1.10;99.90;;;;;;5039234;28;20132;-83
2021/11/28 07:14:53;;;;;;;0.20;0.20;;;1.10;99.90;;;;;;5039252;28;20056;-83
2021/11/28 07:17:20;;;;;;;0.30;0.30;;;1.20;99.90;;;;;;5055619;28;20047;-83
2021/11/28 07:19:47;;;;;;;0.20;0.20;;;1.00;99.90;;;;;;5039531;28;20088;-83
2021/11/28 07:22:14;;;;;;;0.20;0.20;;;1.00;99.90;;;;;;5039752;28;20046;-84
2021/11/28 07:24:41;;;;;;;0.25;0.25;;;1.00;99.90;;;;;;5019871;28;20044;-83
2021/11/28 07:27:08;;;;;;;0.20;0.20;;;1.10;99.90;;;;;;5026249;28;20519;-84
2021/11/28 07:29:35;;;;;;;0.30;0.30;;;1.40;99.90;;;;;;5055547;28;20047;-84
2021/11/28 07:32:03;;;;;;;0.20;0.20;;;2.20;99.90;;;;;;5055572;28;20098;-84
2021/11/28 07:34:29;;;;;;;0.20;0.20;;;1.10;99.90;;;;;;5055803;28;20493;-83
2021/11/28 07:36:56;;;;;;;0.28;0.28;;;1.10;99.90;;;;;;5027957;28;20071;-84
2021/11/28 07:39:23;;;;;;;0.20;0.20;;;1.20;99.90;;;;;;5055822;28;20532;-83
2021/11/28 07:41:50;;;;;;;0.20;0.20;;;1.80;99.90;;;;;;5052336;28;20100;-84
2021/11/28 07:44:17;;;;;;;0.25;0.25;;;1.90;99.90;;;;;;5043894;28;20087;-83
2021/11/28 07:46:44;;;;;;;0.28;0.28;;;2.20;99.90;;;;;;5049977;28;20440;-83
2021/11/28 07:49:10;;;;;;;0.20;0.20;;;2.00;99.90;;;;;;5027449;28;20041;-83
2021/11/28 07:51:38;;;;;;;2.00;0.47;;;1.30;99.90;;;;;;5011545;28;20041;-82
2021/11/28 07:54:06;;;;;;;0.20;0.20;;;1.20;99.90;;;;;;5023593;28;20044;-83
2021/11/28 07:56:33;;;;;;;0.20;0.20;;;1.90;99.90;;;;;;5034731;28;20068;-83
2021/11/28 07:59:00;;;;;;;0.20;0.20;;;1.50;99.90;;;;;;5025444;28;20041;-83
2021/11/28 08:01:27;;;;;;;0.25;0.25;;;1.20;99.90;;;;;;5022177;28;20447;-83
2021/11/28 08:03:54;;;;;;;0.20;0.20;;;1.20;99.90;;;;;;5051385;28;20029;-84
2021/11/28 08:06:21;;;;;;;0.20;0.20;;;2.10;99.90;;;;;;5035449;28;20517;-83
2021/11/28 08:08:47;;;;;;;0.30;0.30;;;1.20;99.90;;;;;;5038372;28;20041;-83
2021/11/28 08:11:15;;;;;;;0.20;0.20;;;2.20;99.90;;;;;;5055018;28;20045;-83
2021/11/28 08:13:41;;;;;;;0.25;0.25;;;1.90;99.90;;;;;;5038547;28;20053;-84
2021/11/28 08:16:08;;;;;;;0.20;0.20;;;1.30;99.90;;;;;;5038100;28;20060;-83
2021/11/28 08:18:35;;;;;;;0.20;0.20;;;1.30;99.90;;;;;;5038707;28;20040;-83
2021/11/28 08:21:02;;;;;;;0.20;0.20;;;1.00;99.90;;;;;;5054868;28;20127;-83
2021/11/28 08:23:29;;;;;;;0.10;0.10;;;1.50;99.90;;;;;;5055362;28;20036;-85
2021/11/28 08:25:56;;;;;;;0.20;0.20;;;1.70;99.90;;;;;;5038347;28;20600;-83
2021/11/28 08:28:23;;;;;;;0.20;0.20;;;1.70;99.90;;;;;;5048058;28;20048;-84
2021/11/28 08:30:50;;;;;;;0.20;0.20;;;1.70;99.90;;;;;;5002701;28;20056;-83
2021/11/28 08:33:17;;;;;;;0.20;0.20;;;1.80;99.90;;;;;;5034674;28;20128;-83
2021/11/28 08:35:43;;;;;;;0.20;0.20;;;1.70;99.90;;;;;;5018736;28;20128;-84
2021/11/28 08:38:10;;;;;;;0.20;0.20;;;1.80;99.90;;;;;;5036807;28;20486;-84
2021/11/28 08:40:38;;;;;;;0.20;0.20;;;2.10;99.90;;;;;;5054877;28;20087;-83
2021/11/28 08:43:05;;;;;;;0.10;0.10;;;2.80;99.90;;;;;;5039127;28;20490;-84
2021/11/28 08:45:33;;;;;;;0.20;0.20;;;2.00;99.90;;;;;;5053052;28;20037;-83
2021/11/28 08:48:00;;;;;;;0.20;0.20;;;2.00;99.90;;;;;;5054180;28;20045;-83
2021/11/28 08:50:27;;;;;;;0.20;0.20;;;2.10;99.90;;;;;;5038140;28;20041;-83
2021/11/28 08:52:54;;;;;;;0.20;0.20;;;3.20;99.90;;;;;;5037510;28;20037;-83
2021/11/28 08:55:21;;;;;;;0.20;0.20;;;2.30;99.90;;;;;;5054363;28;20049;-84
2021/11/28 08:57:49;;;;;;;0.20;0.20;;;2.40;99.90;;;;;;5037837;28;20041;-83
2021/11/28 09:00:16;;;;;;;0.20;0.20;;;2.50;99.90;;;;;;5035245;28;20094;-83
2021/11/28 09:02:46;;;;;;;0.10;0.10;;;2.60;99.90;;;;;;5070566;28;20044;-83
2021/11/28 09:05:12;;;;;;;0.10;0.10;;;2.60;99.90;;;;;;5053296;28;20044;-83
2021/11/28 09:07:39;;;;;;;0.17;0.17;;;3.40;99.90;;;;;;5012522;28;20041;-83
2021/11/28 09:10:06;;;;;;;0.20;0.20;;;2.70;99.90;;;;;;5049646;28;20041;-83
2021/11/28 09:12:33;;;;;;;0.20;0.20;;;2.80;99.90;;;;;;5027193;28;20492;-83
2021/11/28 09:15:00;;;;;;;0.20;0.20;;;3.10;99.90;;;;;;5009163;28;20136;-83
2021/11/28 09:17:27;;;;;;;0.20;0.20;;;3.00;99.90;;;;;;5053689;28;20048;-82
2021/11/28 09:25:11;;;;;;;0.20;0.20;;;3.00;99.90;;;;;;5032221;28;20060;-83
2021/11/28 09:27:42;;;;;;;0.22;0.22;;;3.00;99.90;;;;;;5049788;28;20037;-84
2021/11/28 09:30:10;;;;;;;0.13;0.13;;;3.10;99.90;;;;;;5034512;28;20376;-83
2021/11/28 09:32:37;;;;;;;0.20;0.20;;;3.10;99.90;;;;;;5037260;28;20076;-83
2021/11/28 09:35:04;;;;;;;0.20;0.20;;;3.40;99.90;;;;;;5046387;28;20114;-83
2021/11/28 09:37:31;;;;;;;0.20;0.20;;;3.30;99.90;;;;;;5053567;28;20075;-84
2021/11/28 09:39:58;;;;;;;0.13;0.13;;;3.40;99.90;;;;;;5069502;28;20040;-83
2021/11/28 09:42:31;;;;;;;0.17;0.17;;;3.40;99.90;;;;;;5053158;28;20508;-84
2021/11/28 09:45:00;;;;;;;0.10;0.10;;;3.60;99.90;;;;;;5086003;28;20127;-83
2021/11/28 09:47:27;;;;;;;0.30;0.30;;;4.00;99.90;;;;;;5085507;28;20516;-84
2021/11/28 09:49:57;;;;;;;0.40;0.32;;;4.20;99.90;;;;;;5052810;28;20045;-83
2021/11/28 09:52:26;;;;;;;0.10;0.10;;;4.50;99.90;;;;;;5065305;28;20033;-83
2021/11/28 09:54:56;;;;;;;0.20;0.20;;;4.30;99.90;;;;;;5028821;28;20037;-83
2021/11/28 09:57:23;;;;;;;0.20;0.20;;;4.00;99.90;;;;;;5048634;28;20072;-83
2021/11/28 09:59:53;;;;;;;0.38;0.38;;;4.20;99.90;;;;;;5050810;28;20414;-84
2021/11/28 10:02:31;;;;;;;0.10;0.10;;;4.30;99.90;;;;;;5044427;28;20124;-84
2021/11/28 10:05:01;;;;;;;0.20;0.20;;;4.20;99.90;;;;;;5066068;28;20071;-83
2021/11/28 10:07:28;;;;;;;0.10;0.10;;;4.30;99.90;;;;;;5062758;28;20510;-83
2021/11/28 10:09:56;;;;;;;0.20;0.20;;;4.30;99.90;;;;;;5017306;28;20049;-83
2021/11/28 10:12:26;;;;;;;0.20;0.20;;;4.40;99.90;;;;;;5048986;28;20069;-84
2021/11/28 10:15:05;;;;;;;0.10;0.10;;;4.90;99.90;;;;;;5054161;28;20502;-84
2021/11/28 10:17:34;;;;;;;0.17;0.17;;;4.30;99.90;;;;;;5052620;28;20045;-84
2021/11/28 10:20:05;;;;;;;0.10;0.10;;;4.40;99.90;;;;;;5051979;28;20512;-83
2021/11/28 10:22:32;;;;;;;0.20;0.20;;;4.30;99.90;;;;;;5069260;28;20084;-84
2021/11/28 10:25:26;;;;;;;0.15;0.15;;;4.20;99.90;;;;;;5035603;28;20072;-83
2021/11/28 10:27:56;;;;;;;0.10;0.10;;;4.70;99.90;;;;;;5068617;28;20497;-83
2021/11/28 10:30:29;;;;;;;0.10;0.10;;;4.10;99.90;;;;;;5085372;28;20109;-82
2021/11/28 10:33:12;;;;;;;0.10;0.10;;;4.10;99.90;;;;;;5068224;28;20512;-83
2021/11/28 10:35:59;;;;;;;0.10;0.10;;;4.10;99.90;;;;;;5053823;28;20099;-83
2021/11/28 10:38:34;;;;;;;0.10;0.10;;;4.10;99.90;;;;;;5046807;28;20045;-83
2021/11/28 10:41:01;;;;;;;0.10;0.10;;;4.10;99.90;;;;;;5056211;28;20044;-83
2021/11/28 10:43:40;;;;;;;0.10;0.10;;;4.20;99.90;;;;;;5064698;28;20049;-84
2021/11/28 10:46:26;;;;;;;0.10;0.10;;;4.20;99.90;;;;;;5052071;28;20064;-83
2021/11/28 10:49:13;;;;;;;0.10;0.10;;;4.20;99.90;;;;;;5074022;28;20120;-83
2021/11/28 10:51:46;;;;;;;0.13;0.13;;;4.30;99.90;;;;;;5069079;28;20041;-83
2021/11/28 10:54:30;;;;;;;0.10;0.10;;;4.30;99.90;;;;;;5080623;28;20087;-83
2021/11/28 10:57:08;;;;;;;0.10;0.10;;;4.40;99.90;;;;;;5051807;28;20041;-84
2021/11/28 10:59:39;;;;;;;0.22;0.22;;;4.40;99.90;;;;;;5049806;28;20042;-84
2021/11/28 11:02:24;;;;;;;0.10;0.10;;;4.80;99.90;;;;;;5049613;28;20068;-83
2021/11/28 11:04:53;;;;;;;0.10;0.10;;;4.60;99.90;;;;;;5032585;28;20037;-84
2021/11/28 11:07:23;;;;;;;0.10;0.10;;;4.70;99.90;;;;;;5016481;28;20081;-84
2021/11/28 11:09:54;;;;;;;0.10;0.10;;;4.70;99.90;;;;;;5032814;28;20144;-84
2021/11/28 11:12:21;;;;;;;0.20;0.20;;;5.50;99.90;;;;;;5000029;28;20045;-84
2021/11/28 11:14:53;;;;;;;0.10;0.10;;;4.70;99.90;;;;;;5048417;28;20049;-84
2021/11/28 11:17:21;;;;;;;0.10;0.10;;;5.40;99.90;;;;;;5048467;28;20077;-84
2021/11/28 11:19:48;;;;;;;0.10;0.10;;;4.60;99.90;;;;;;5015845;28;20056;-84
2021/11/28 11:22:26;;;;;;;0.10;0.10;;;4.60;99.90;;;;;;5019100;28;20047;-84
2021/11/28 11:25:00;;;;;;;0.10;0.10;;;4.60;99.90;;;;;;5036345;28;20113;-84
2021/11/28 11:27:39;;;;;;;0.17;0.17;;;4.50;99.90;;;;;;5051827;28;20037;-84
2021/11/28 11:30:15;;;;;;;0.10;0.10;;;4.50;99.90;;;;;;5035668;28;20387;-84
2021/11/28 11:32:44;;;;;;;0.10;0.10;;;4.40;99.90;;;;;;5052292;28;20076;-83
2021/11/28 11:35:25;;;;;;;0.10;0.10;;;4.40;99.90;;;;;;5035217;28;20045;-84
2021/11/28 11:37:57;;;;;;;0.10;0.10;;;4.40;99.90;;;;;;5036011;28;20029;-84
2021/11/28 11:40:25;;;;;;;0.10;0.10;;;4.30;99.90;;;;;;5035189;28;20079;-84
2021/11/28 11:42:53;;;;;;;0.13;0.13;;;4.30;99.90;;;;;;5019242;28;20037;-84
2021/11/28 11:45:26;;;;;;;0.10;0.10;;;4.40;99.90;;;;;;5019454;28;20041;-84
2021/11/28 11:47:53;;;;;;;0.10;0.10;;;4.30;99.90;;;;;;5035422;28;20041;-83
2021/11/28 11:50:22;;;;;;;0.20;0.20;;;4.30;99.90;;;;;;5034798;28;20084;-84
2021/11/28 11:52:51;;;;;;;0.20;0.20;;;4.90;99.90;;;;;;5035339;28;20100;-84
2021/11/28 11:55:21;;;;;;;0.10;0.10;;;4.80;99.90;;;;;;5019119;28;20034;-84
2021/11/28 11:58:13;;;;;;;0.10;0.10;;;4.50;99.90;;;;;;5034848;28;20045;-84
2021/11/28 12:00:59;;;;;;;0.17;0.17;;;4.30;99.90;;;;;;5051609;28;20107;-84
2021/11/28 12:03:26;;;;;;;0.10;0.10;;;4.30;99.90;;;;;;5051404;28;20041;-83
2021/11/28 12:05:54;;;;;;;0.20;0.20;;;4.30;99.90;;;;;;5035259;28;20520;-84
2021/11/28 12:08:35;;;;;;;0.10;0.10;;;4.50;99.90;;;;;;5037604;28;20075;-84
2021/11/28 12:11:06;;;;;;;0.13;0.13;;;4.30;99.90;;;;;;5071394;28;20497;-84
2021/11/28 12:13:33;;;;;;;0.10;0.10;;;4.30;99.90;;;;;;5036038;28;20041;-84
2021/11/28 12:16:06;;;;;;;0.10;0.10;;;4.60;99.90;;;;;;5050707;28;20079;-84
2021/11/28 12:18:41;;;;;;;0.10;0.10;;;4.20;99.90;;;;;;5053756;28;20045;-84
2021/11/28 12:21:09;;;;;;;0.10;0.10;;;4.00;99.90;;;;;;5051037;28;20050;-84
2021/11/28 12:23:55;;;;;;;0.10;0.10;;;3.90;99.90;;;;;;5035292;28;20045;-83
2021/11/28 12:26:27;;;;;;;0.20;0.20;;;3.80;99.90;;;;;;5050546;28;20510;-83
2021/11/28 12:28:59;;;;;;;0.20;0.20;;;3.80;99.90;;;;;;5053293;28;20498;-83
2021/11/28 12:31:33;;;;;;;0.20;0.20;;;3.70;99.90;;;;;;5046142;28;20044;-83
2021/11/28 12:34:05;;;;;;;0.10;0.10;;;3.80;99.90;;;;;;5056943;28;20052;-83
2021/11/28 12:36:35;;;;;;;0.20;0.20;;;3.80;99.90;;;;;;5052487;28;20044;-84
2021/11/28 12:39:35;;;;;;;0.20;0.20;;;3.80;99.90;;;;;;5054378;28;20048;-84
2021/11/28 12:42:04;;;;;;;0.20;0.20;;;3.80;99.90;;;;;;5069945;28;20063;-84
2021/11/28 12:44:35;;;;;;;0.10;0.10;;;3.80;99.90;;;;;;5053897;28;20052;-85
2021/11/28 12:47:08;;;;;;;0.10;0.10;;;3.80;99.90;;;;;;5054454;28;20072;-84
2021/11/28 12:49:54;;;;;;;0.17;0.17;;;3.80;99.90;;;;;;5070449;28;20405;-84
2021/11/28 12:52:23;;;;;;;0.20;0.20;;;3.70;99.90;;;;;;5054070;28;20594;-84
2021/11/28 12:55:08;;;;;;;0.10;0.10;;;3.70;99.90;;;;;;5054118;28;20049;-85
2021/11/28 12:57:35;;;;;;;0.20;0.20;;;3.60;99.90;;;;;;5054359;28;20514;-84
2021/11/28 13:00:23;;;;;;;0.20;0.20;;;3.60;99.90;;;;;;5054225;28;20094;-84
2021/11/28 13:02:58;;;;;;;0.17;0.17;;;3.50;99.90;;;;;;5050560;28;20040;-84
2021/11/28 13:05:38;;;;;;;0.20;0.20;;;3.50;99.90;;;;;;5041900;28;20036;-84
2021/11/28 13:08:05;;;;;;;0.10;0.10;;;3.60;99.90;;;;;;5065994;28;20040;-83
2021/11/28 13:10:45;;;;;;;0.10;0.10;;;3.60;99.90;;;;;;5049676;28;20410;-83
2021/11/28 13:13:25;;;;;;;0.15;0.15;;;3.60;99.90;;;;;;5043160;28;20463;-83
2021/11/28 13:15:57;;;;;;;0.10;0.10;;;3.50;99.90;;;;;;5039606;28;20111;-83
2021/11/28 13:18:33;;;;;;;0.10;0.10;;;3.50;99.90;;;;;;5048736;28;20041;-83
2021/11/28 13:21:06;;;;;;;0.15;0.15;;;3.60;99.90;;;;;;5030000;28;20037;-83